sensor_id;sensor_type;location;lat;lon;timestamp;P1;durP1;ratioP1;P2;durP2;ratioP2
56399;SDS011;42298;53.638;9.876;2023-05-07T00:00:36;15.33;;;10.53;;
56399;SDS011;42298;53.638;9.876;2023-05-07T00:03:02;16.50;;;10.73;;
56399;SDS011;42298;53.638;9.876;2023-05-07T00:05:28;16.93;;;12.07;;
56399;SDS011;42298;53.638;9.876;2023-05-07T00:07:53;15.97;;;10.83;;
56399;SDS011;42298;53.638;9.876;2023-05-07T00:10:19;16.43;;;11.37;;
56399;SDS011;42298;53.638;9.876;2023-05-07T00:12:44;16.33;;;11.23;;
56399;SDS011;42298;53.638;9.876;2023-05-07T00:15:09;15.57;;;11.00;;
56399;SDS011;42298;53.638;9.876;2023-05-07T00:17:35;15.90;;;10.73;;
56399;SDS011;42298;53.638;9.876;2023-05-07T00:20:03;17.33;;;12.03;;
56399;SDS011;42298;53.638;9.876;2023-05-07T00:22:29;15.87;;;10.73;;
56399;SDS011;42298;53.638;9.876;2023-05-07T00:24:57;16.93;;;12.20;;
56399;SDS011;42298;53.638;9.876;2023-05-07T00:27:22;15.90;;;11.10;;
56399;SDS011;42298;53.638;9.876;2023-05-07T00:29:48;16.47;;;11.93;;
56399;SDS011;42298;53.638;9.876;2023-05-07T00:32:16;18.73;;;12.53;;
56399;SDS011;42298;53.638;9.876;2023-05-07T00:34:41;16.33;;;10.80;;
56399;SDS011;42298;53.638;9.876;2023-05-07T00:37:07;18.17;;;11.33;;
56399;SDS011;42298;53.638;9.876;2023-05-07T00:39:34;15.83;;;10.27;;
56399;SDS011;42298;53.638;9.876;2023-05-07T00:42:03;16.80;;;11.63;;
56399;SDS011;42298;53.638;9.876;2023-05-07T00:44:29;18.17;;;11.90;;
56399;SDS011;42298;53.638;9.876;2023-05-07T00:46:57;16.63;;;10.90;;
56399;SDS011;42298;53.638;9.876;2023-05-07T00:49:25;15.53;;;11.17;;
56399;SDS011;42298;53.638;9.876;2023-05-07T00:52:02;17.73;;;10.83;;
56399;SDS011;42298;53.638;9.876;2023-05-07T00:54:28;17.27;;;12.07;;
56399;SDS011;42298;53.638;9.876;2023-05-07T00:56:56;15.57;;;11.03;;
56399;SDS011;42298;53.638;9.876;2023-05-07T00:59:21;18.20;;;12.23;;
56399;SDS011;42298;53.638;9.876;2023-05-07T01:01:47;17.70;;;10.53;;
56399;SDS011;42298;53.638;9.876;2023-05-07T01:04:12;17.83;;;11.50;;
56399;SDS011;42298;53.638;9.876;2023-05-07T01:06:38;14.80;;;10.63;;
56399;SDS011;42298;53.638;9.876;2023-05-07T01:09:03;15.87;;;11.13;;
56399;SDS011;42298;53.638;9.876;2023-05-07T01:11:29;16.73;;;11.43;;
56399;SDS011;42298;53.638;9.876;2023-05-07T01:13:55;16.83;;;11.23;;
56399;SDS011;42298;53.638;9.876;2023-05-07T01:16:23;15.30;;;11.00;;
56399;SDS011;42298;53.638;9.876;2023-05-07T01:18:48;15.70;;;10.47;;
56399;SDS011;42298;53.638;9.876;2023-05-07T01:21:15;17.50;;;11.13;;
56399;SDS011;42298;53.638;9.876;2023-05-07T01:23:44;17.17;;;11.43;;
56399;SDS011;42298;53.638;9.876;2023-05-07T01:26:11;15.47;;;10.57;;
56399;SDS011;42298;53.638;9.876;2023-05-07T01:28:36;16.13;;;11.57;;
56399;SDS011;42298;53.638;9.876;2023-05-07T01:31:02;16.00;;;10.50;;
56399;SDS011;42298;53.638;9.876;2023-05-07T01:33:30;15.90;;;10.50;;
56399;SDS011;42298;53.638;9.876;2023-05-07T01:36:00;15.77;;;10.43;;
56399;SDS011;42298;53.638;9.876;2023-05-07T01:38:28;15.63;;;10.70;;
56399;SDS011;42298;53.638;9.876;2023-05-07T01:40:55;15.60;;;11.07;;
56399;SDS011;42298;53.638;9.876;2023-05-07T01:43:20;16.37;;;11.07;;
56399;SDS011;42298;53.638;9.876;2023-05-07T01:45:47;14.27;;;9.53;;
56399;SDS011;42298;53.638;9.876;2023-05-07T01:48:14;17.80;;;10.47;;
56399;SDS011;42298;53.638;9.876;2023-05-07T01:50:40;14.90;;;10.30;;
56399;SDS011;42298;53.638;9.876;2023-05-07T01:53:06;14.50;;;10.07;;
56399;SDS011;42298;53.638;9.876;2023-05-07T01:55:32;16.00;;;9.87;;
56399;SDS011;42298;53.638;9.876;2023-05-07T01:57:57;14.47;;;10.27;;
56399;SDS011;42298;53.638;9.876;2023-05-07T02:00:22;14.97;;;9.73;;
56399;SDS011;42298;53.638;9.876;2023-05-07T02:02:48;14.23;;;10.03;;
56399;SDS011;42298;53.638;9.876;2023-05-07T02:05:13;13.77;;;9.33;;
56399;SDS011;42298;53.638;9.876;2023-05-07T02:07:39;15.27;;;10.23;;
56399;SDS011;42298;53.638;9.876;2023-05-07T02:10:05;12.93;;;8.93;;
56399;SDS011;42298;53.638;9.876;2023-05-07T02:12:32;14.73;;;9.83;;
56399;SDS011;42298;53.638;9.876;2023-05-07T02:15:00;14.77;;;9.73;;
56399;SDS011;42298;53.638;9.876;2023-05-07T02:17:27;17.37;;;10.63;;
56399;SDS011;42298;53.638;9.876;2023-05-07T02:19:52;14.23;;;9.90;;
56399;SDS011;42298;53.638;9.876;2023-05-07T02:22:18;15.20;;;10.20;;
56399;SDS011;42298;53.638;9.876;2023-05-07T02:24:43;16.13;;;10.80;;
56399;SDS011;42298;53.638;9.876;2023-05-07T02:27:09;14.40;;;9.87;;
56399;SDS011;42298;53.638;9.876;2023-05-07T02:29:34;14.77;;;10.03;;
56399;SDS011;42298;53.638;9.876;2023-05-07T02:32:00;15.60;;;9.70;;
56399;SDS011;42298;53.638;9.876;2023-05-07T02:34:25;14.80;;;10.10;;
56399;SDS011;42298;53.638;9.876;2023-05-07T02:36:52;14.80;;;9.53;;
56399;SDS011;42298;53.638;9.876;2023-05-07T02:39:17;13.93;;;9.63;;
56399;SDS011;42298;53.638;9.876;2023-05-07T02:41:42;16.23;;;10.07;;
56399;SDS011;42298;53.638;9.876;2023-05-07T02:44:08;13.90;;;8.83;;
56399;SDS011;42298;53.638;9.876;2023-05-07T02:46:34;13.30;;;8.43;;
56399;SDS011;42298;53.638;9.876;2023-05-07T02:48:59;14.97;;;8.07;;
56399;SDS011;42298;53.638;9.876;2023-05-07T02:51:25;13.43;;;8.57;;
56399;SDS011;42298;53.638;9.876;2023-05-07T02:53:51;14.53;;;8.90;;
56399;SDS011;42298;53.638;9.876;2023-05-07T02:56:17;14.97;;;8.83;;
56399;SDS011;42298;53.638;9.876;2023-05-07T02:58:43;13.10;;;8.67;;
56399;SDS011;42298;53.638;9.876;2023-05-07T03:01:08;14.00;;;8.73;;
56399;SDS011;42298;53.638;9.876;2023-05-07T03:03:35;13.87;;;8.77;;
56399;SDS011;42298;53.638;9.876;2023-05-07T03:06:01;13.83;;;8.67;;
56399;SDS011;42298;53.638;9.876;2023-05-07T03:08:26;13.13;;;8.00;;
56399;SDS011;42298;53.638;9.876;2023-05-07T03:10:51;14.80;;;9.20;;
56399;SDS011;42298;53.638;9.876;2023-05-07T03:13:17;14.03;;;8.77;;
56399;SDS011;42298;53.638;9.876;2023-05-07T03:15:42;13.70;;;8.47;;
56399;SDS011;42298;53.638;9.876;2023-05-07T03:18:09;14.30;;;9.40;;
56399;SDS011;42298;53.638;9.876;2023-05-07T03:20:34;14.27;;;9.33;;
56399;SDS011;42298;53.638;9.876;2023-05-07T03:23:01;14.37;;;9.87;;
56399;SDS011;42298;53.638;9.876;2023-05-07T03:25:27;15.90;;;9.00;;
56399;SDS011;42298;53.638;9.876;2023-05-07T03:27:55;15.40;;;10.37;;
56399;SDS011;42298;53.638;9.876;2023-05-07T03:30:22;14.53;;;10.03;;
56399;SDS011;42298;53.638;9.876;2023-05-07T03:32:50;14.17;;;9.17;;
56399;SDS011;42298;53.638;9.876;2023-05-07T03:35:16;14.50;;;9.13;;
56399;SDS011;42298;53.638;9.876;2023-05-07T03:37:41;15.17;;;9.60;;
56399;SDS011;42298;53.638;9.876;2023-05-07T03:40:07;16.13;;;10.40;;
56399;SDS011;42298;53.638;9.876;2023-05-07T03:42:35;14.23;;;10.13;;
56399;SDS011;42298;53.638;9.876;2023-05-07T03:45:02;16.07;;;10.23;;
56399;SDS011;42298;53.638;9.876;2023-05-07T03:47:27;15.03;;;10.60;;
56399;SDS011;42298;53.638;9.876;2023-05-07T03:49:52;14.87;;;9.73;;
56399;SDS011;42298;53.638;9.876;2023-05-07T03:52:22;15.13;;;10.80;;
56399;SDS011;42298;53.638;9.876;2023-05-07T03:54:51;14.70;;;10.00;;
56399;SDS011;42298;53.638;9.876;2023-05-07T03:57:17;14.07;;;10.23;;
56399;SDS011;42298;53.638;9.876;2023-05-07T03:59:42;14.90;;;10.13;;
56399;SDS011;42298;53.638;9.876;2023-05-07T04:02:09;16.30;;;10.93;;
56399;SDS011;42298;53.638;9.876;2023-05-07T04:04:34;14.90;;;10.10;;
56399;SDS011;42298;53.638;9.876;2023-05-07T04:06:59;14.83;;;10.00;;
56399;SDS011;42298;53.638;9.876;2023-05-07T04:09:25;14.00;;;9.60;;
56399;SDS011;42298;53.638;9.876;2023-05-07T04:11:51;14.67;;;10.57;;
56399;SDS011;42298;53.638;9.876;2023-05-07T04:14:16;14.93;;;9.93;;
56399;SDS011;42298;53.638;9.876;2023-05-07T04:16:41;15.13;;;10.70;;
56399;SDS011;42298;53.638;9.876;2023-05-07T04:19:07;15.37;;;10.20;;
56399;SDS011;42298;53.638;9.876;2023-05-07T04:21:32;15.73;;;9.67;;
56399;SDS011;42298;53.638;9.876;2023-05-07T04:23:58;13.23;;;8.87;;
56399;SDS011;42298;53.638;9.876;2023-05-07T04:26:24;14.67;;;9.53;;
56399;SDS011;42298;53.638;9.876;2023-05-07T04:28:51;13.90;;;9.23;;
56399;SDS011;42298;53.638;9.876;2023-05-07T04:31:17;13.53;;;9.33;;
56399;SDS011;42298;53.638;9.876;2023-05-07T04:33:42;14.20;;;9.17;;
56399;SDS011;42298;53.638;9.876;2023-05-07T04:36:07;13.87;;;9.47;;
56399;SDS011;42298;53.638;9.876;2023-05-07T04:38:35;16.57;;;10.77;;
56399;SDS011;42298;53.638;9.876;2023-05-07T04:41:04;16.67;;;10.03;;
56399;SDS011;42298;53.638;9.876;2023-05-07T04:43:30;15.07;;;10.20;;
56399;SDS011;42298;53.638;9.876;2023-05-07T04:45:57;15.03;;;9.13;;
56399;SDS011;42298;53.638;9.876;2023-05-07T04:48:23;14.30;;;9.57;;
56399;SDS011;42298;53.638;9.876;2023-05-07T04:50:51;13.87;;;8.83;;
56399;SDS011;42298;53.638;9.876;2023-05-07T04:53:17;14.70;;;9.50;;
56399;SDS011;42298;53.638;9.876;2023-05-07T04:55:43;14.47;;;9.10;;
56399;SDS011;42298;53.638;9.876;2023-05-07T04:58:10;13.87;;;8.83;;
56399;SDS011;42298;53.638;9.876;2023-05-07T05:03:58;14.77;;;9.60;;
56399;SDS011;42298;53.638;9.876;2023-05-07T05:06:25;14.33;;;9.37;;
56399;SDS011;42298;53.638;9.876;2023-05-07T05:08:50;14.43;;;9.53;;
56399;SDS011;42298;53.638;9.876;2023-05-07T05:11:18;13.53;;;9.43;;
56399;SDS011;42298;53.638;9.876;2023-05-07T05:13:44;13.77;;;9.33;;
56399;SDS011;42298;53.638;9.876;2023-05-07T05:16:09;13.60;;;8.70;;
56399;SDS011;42298;53.638;9.876;2023-05-07T05:18:34;14.17;;;8.97;;
56399;SDS011;42298;53.638;9.876;2023-05-07T05:21:00;13.90;;;8.87;;
56399;SDS011;42298;53.638;9.876;2023-05-07T05:23:27;12.30;;;8.33;;
56399;SDS011;42298;53.638;9.876;2023-05-07T05:25:58;13.43;;;8.80;;
56399;SDS011;42298;53.638;9.876;2023-05-07T05:28:25;14.17;;;8.83;;
56399;SDS011;42298;53.638;9.876;2023-05-07T05:30:53;14.00;;;9.10;;
56399;SDS011;42298;53.638;9.876;2023-05-07T05:33:18;13.47;;;9.13;;
56399;SDS011;42298;53.638;9.876;2023-05-07T05:35:43;14.13;;;8.73;;
56399;SDS011;42298;53.638;9.876;2023-05-07T05:38:09;14.10;;;9.00;;
56399;SDS011;42298;53.638;9.876;2023-05-07T05:40:34;13.60;;;8.77;;
56399;SDS011;42298;53.638;9.876;2023-05-07T05:42:59;13.97;;;9.20;;
56399;SDS011;42298;53.638;9.876;2023-05-07T05:45:25;14.53;;;9.60;;
56399;SDS011;42298;53.638;9.876;2023-05-07T05:47:51;14.37;;;8.97;;
56399;SDS011;42298;53.638;9.876;2023-05-07T05:50:16;13.67;;;9.17;;
56399;SDS011;42298;53.638;9.876;2023-05-07T05:52:42;13.33;;;8.63;;
56399;SDS011;42298;53.638;9.876;2023-05-07T05:55:09;13.27;;;8.47;;
56399;SDS011;42298;53.638;9.876;2023-05-07T05:57:34;13.13;;;8.53;;
56399;SDS011;42298;53.638;9.876;2023-05-07T06:00:01;13.43;;;8.40;;
56399;SDS011;42298;53.638;9.876;2023-05-07T06:02:27;13.60;;;9.57;;
56399;SDS011;42298;53.638;9.876;2023-05-07T06:04:53;13.67;;;8.93;;
56399;SDS011;42298;53.638;9.876;2023-05-07T06:07:18;14.10;;;9.03;;
56399;SDS011;42298;53.638;9.876;2023-05-07T06:09:43;14.70;;;9.37;;
56399;SDS011;42298;53.638;9.876;2023-05-07T06:12:11;15.30;;;9.20;;
56399;SDS011;42298;53.638;9.876;2023-05-07T06:14:36;14.37;;;9.27;;
56399;SDS011;42298;53.638;9.876;2023-05-07T06:17:02;16.13;;;9.80;;
56399;SDS011;42298;53.638;9.876;2023-05-07T06:19:27;14.00;;;8.80;;
56399;SDS011;42298;53.638;9.876;2023-05-07T06:21:53;15.23;;;8.70;;
56399;SDS011;42298;53.638;9.876;2023-05-07T06:24:18;14.27;;;8.97;;
56399;SDS011;42298;53.638;9.876;2023-05-07T06:26:43;15.03;;;9.63;;
56399;SDS011;42298;53.638;9.876;2023-05-07T06:29:09;13.80;;;9.40;;
56399;SDS011;42298;53.638;9.876;2023-05-07T06:31:34;13.63;;;8.53;;
56399;SDS011;42298;53.638;9.876;2023-05-07T06:34:01;13.77;;;8.77;;
56399;SDS011;42298;53.638;9.876;2023-05-07T06:36:27;13.87;;;9.33;;
56399;SDS011;42298;53.638;9.876;2023-05-07T06:38:53;13.63;;;8.77;;
56399;SDS011;42298;53.638;9.876;2023-05-07T06:41:18;13.80;;;8.20;;
56399;SDS011;42298;53.638;9.876;2023-05-07T06:43:43;14.50;;;8.97;;
56399;SDS011;42298;53.638;9.876;2023-05-07T06:46:09;14.23;;;9.00;;
56399;SDS011;42298;53.638;9.876;2023-05-07T06:48:34;14.70;;;9.00;;
56399;SDS011;42298;53.638;9.876;2023-05-07T06:50:59;13.63;;;8.73;;
56399;SDS011;42298;53.638;9.876;2023-05-07T06:53:24;13.73;;;8.67;;
56399;SDS011;42298;53.638;9.876;2023-05-07T06:55:50;13.90;;;8.50;;
56399;SDS011;42298;53.638;9.876;2023-05-07T06:58:17;12.97;;;8.70;;
56399;SDS011;42298;53.638;9.876;2023-05-07T07:00:44;11.93;;;8.10;;
56399;SDS011;42298;53.638;9.876;2023-05-07T07:03:10;11.20;;;7.47;;
56399;SDS011;42298;53.638;9.876;2023-05-07T07:05:36;13.40;;;8.07;;
56399;SDS011;42298;53.638;9.876;2023-05-07T07:08:01;11.90;;;7.73;;
56399;SDS011;42298;53.638;9.876;2023-05-07T07:10:27;12.63;;;8.03;;
56399;SDS011;42298;53.638;9.876;2023-05-07T07:12:52;13.43;;;8.30;;
56399;SDS011;42298;53.638;9.876;2023-05-07T07:15:17;12.70;;;7.70;;
56399;SDS011;42298;53.638;9.876;2023-05-07T07:17:45;13.57;;;7.83;;
56399;SDS011;42298;53.638;9.876;2023-05-07T07:20:10;12.20;;;7.27;;
56399;SDS011;42298;53.638;9.876;2023-05-07T07:22:36;12.47;;;7.90;;
56399;SDS011;42298;53.638;9.876;2023-05-07T07:25:01;12.33;;;7.70;;
56399;SDS011;42298;53.638;9.876;2023-05-07T07:27:27;11.50;;;7.30;;
56399;SDS011;42298;53.638;9.876;2023-05-07T07:29:52;12.37;;;7.57;;
56399;SDS011;42298;53.638;9.876;2023-05-07T07:32:17;12.67;;;7.93;;
56399;SDS011;42298;53.638;9.876;2023-05-07T07:34:43;12.65;;;7.57;;
56399;SDS011;42298;53.638;9.876;2023-05-07T07:37:08;12.23;;;7.40;;
56399;SDS011;42298;53.638;9.876;2023-05-07T07:39:33;12.03;;;7.77;;
56399;SDS011;42298;53.638;9.876;2023-05-07T07:42:00;11.10;;;7.10;;
56399;SDS011;42298;53.638;9.876;2023-05-07T07:44:25;10.97;;;7.10;;
56399;SDS011;42298;53.638;9.876;2023-05-07T07:46:53;11.97;;;7.77;;
56399;SDS011;42298;53.638;9.876;2023-05-07T07:49:18;10.57;;;6.70;;
56399;SDS011;42298;53.638;9.876;2023-05-07T07:51:45;10.87;;;6.37;;
56399;SDS011;42298;53.638;9.876;2023-05-07T07:54:10;11.18;;;6.28;;
56399;SDS011;42298;53.638;9.876;2023-05-07T07:56:35;12.45;;;7.05;;
56399;SDS011;42298;53.638;9.876;2023-05-07T07:59:01;11.73;;;7.27;;
56399;SDS011;42298;53.638;9.876;2023-05-07T08:01:26;14.33;;;7.20;;
56399;SDS011;42298;53.638;9.876;2023-05-07T08:03:55;11.97;;;6.83;;
56399;SDS011;42298;53.638;9.876;2023-05-07T08:06:20;11.73;;;7.00;;
56399;SDS011;42298;53.638;9.876;2023-05-07T08:08:45;10.87;;;6.30;;
56399;SDS011;42298;53.638;9.876;2023-05-07T08:11:11;10.70;;;6.73;;
56399;SDS011;42298;53.638;9.876;2023-05-07T08:13:36;12.33;;;7.23;;
56399;SDS011;42298;53.638;9.876;2023-05-07T08:16:04;11.60;;;6.40;;
56399;SDS011;42298;53.638;9.876;2023-05-07T08:18:29;10.20;;;6.17;;
56399;SDS011;42298;53.638;9.876;2023-05-07T08:20:55;9.37;;;5.83;;
56399;SDS011;42298;53.638;9.876;2023-05-07T08:23:20;10.65;;;6.78;;
56399;SDS011;42298;53.638;9.876;2023-05-07T08:25:46;10.38;;;6.28;;
56399;SDS011;42298;53.638;9.876;2023-05-07T08:28:12;11.40;;;6.00;;
56399;SDS011;42298;53.638;9.876;2023-05-07T08:30:37;11.83;;;6.00;;
56399;SDS011;42298;53.638;9.876;2023-05-07T08:33:02;9.97;;;6.30;;
56399;SDS011;42298;53.638;9.876;2023-05-07T08:35:28;10.50;;;6.13;;
56399;SDS011;42298;53.638;9.876;2023-05-07T08:37:53;10.85;;;6.15;;
56399;SDS011;42298;53.638;9.876;2023-05-07T08:40:24;9.23;;;6.10;;
56399;SDS011;42298;53.638;9.876;2023-05-07T08:42:52;11.60;;;6.85;;
56399;SDS011;42298;53.638;9.876;2023-05-07T08:45:18;10.20;;;6.63;;
56399;SDS011;42298;53.638;9.876;2023-05-07T08:47:47;11.18;;;6.28;;
56399;SDS011;42298;53.638;9.876;2023-05-07T08:50:16;11.02;;;6.95;;
56399;SDS011;42298;53.638;9.876;2023-05-07T08:52:42;9.88;;;6.75;;
56399;SDS011;42298;53.638;9.876;2023-05-07T08:55:10;11.00;;;7.20;;
56399;SDS011;42298;53.638;9.876;2023-05-07T08:57:35;11.77;;;6.67;;
56399;SDS011;42298;53.638;9.876;2023-05-07T09:00:01;10.63;;;6.87;;
56399;SDS011;42298;53.638;9.876;2023-05-07T09:02:27;12.07;;;6.57;;
56399;SDS011;42298;53.638;9.876;2023-05-07T09:04:53;11.30;;;6.57;;
56399;SDS011;42298;53.638;9.876;2023-05-07T09:07:19;11.20;;;7.13;;
56399;SDS011;42298;53.638;9.876;2023-05-07T09:09:45;11.77;;;6.50;;
56399;SDS011;42298;53.638;9.876;2023-05-07T09:12:11;11.80;;;6.80;;
56399;SDS011;42298;53.638;9.876;2023-05-07T09:14:36;10.98;;;6.70;;
56399;SDS011;42298;53.638;9.876;2023-05-07T09:17:01;9.70;;;6.27;;
56399;SDS011;42298;53.638;9.876;2023-05-07T09:19:27;11.60;;;6.87;;
56399;SDS011;42298;53.638;9.876;2023-05-07T09:22:03;10.80;;;6.63;;
56399;SDS011;42298;53.638;9.876;2023-05-07T09:24:30;12.20;;;7.03;;
56399;SDS011;42298;53.638;9.876;2023-05-07T09:26:59;10.88;;;6.57;;
56399;SDS011;42298;53.638;9.876;2023-05-07T09:29:26;10.95;;;5.82;;
56399;SDS011;42298;53.638;9.876;2023-05-07T09:31:55;10.73;;;6.07;;
56399;SDS011;42298;53.638;9.876;2023-05-07T09:34:20;11.25;;;6.55;;
56399;SDS011;42298;53.638;9.876;2023-05-07T09:36:46;11.15;;;6.47;;
56399;SDS011;42298;53.638;9.876;2023-05-07T09:39:12;11.13;;;6.25;;
56399;SDS011;42298;53.638;9.876;2023-05-07T09:41:53;9.18;;;5.85;;
56399;SDS011;42298;53.638;9.876;2023-05-07T09:44:20;8.32;;;5.40;;
56399;SDS011;42298;53.638;9.876;2023-05-07T09:46:46;10.95;;;6.07;;
56399;SDS011;42298;53.638;9.876;2023-05-07T09:49:22;13.10;;;6.25;;
56399;SDS011;42298;53.638;9.876;2023-05-07T09:51:49;11.52;;;6.22;;
56399;SDS011;42298;53.638;9.876;2023-05-07T09:54:16;11.00;;;6.40;;
56399;SDS011;42298;53.638;9.876;2023-05-07T09:56:45;10.48;;;6.25;;
56399;SDS011;42298;53.638;9.876;2023-05-07T09:59:13;9.02;;;5.72;;
56399;SDS011;42298;53.638;9.876;2023-05-07T10:01:40;9.70;;;5.50;;
56399;SDS011;42298;53.638;9.876;2023-05-07T10:04:12;10.68;;;6.75;;
56399;SDS011;42298;53.638;9.876;2023-05-07T10:06:39;9.63;;;6.00;;
56399;SDS011;42298;53.638;9.876;2023-05-07T10:09:05;10.70;;;5.93;;
56399;SDS011;42298;53.638;9.876;2023-05-07T10:11:34;9.57;;;5.75;;
56399;SDS011;42298;53.638;9.876;2023-05-07T10:14:01;9.35;;;5.47;;
56399;SDS011;42298;53.638;9.876;2023-05-07T10:16:34;10.35;;;5.95;;
56399;SDS011;42298;53.638;9.876;2023-05-07T10:19:04;9.95;;;5.30;;
56399;SDS011;42298;53.638;9.876;2023-05-07T10:21:31;11.30;;;5.78;;
56399;SDS011;42298;53.638;9.876;2023-05-07T10:26:38;9.68;;;6.22;;
56399;SDS011;42298;53.638;9.876;2023-05-07T10:29:10;11.05;;;5.53;;
56399;SDS011;42298;53.638;9.876;2023-05-07T10:31:59;9.57;;;5.70;;
56399;SDS011;42298;53.638;9.876;2023-05-07T10:34:36;10.82;;;6.28;;
56399;SDS011;42298;53.638;9.876;2023-05-07T10:37:05;9.75;;;5.90;;
56399;SDS011;42298;53.638;9.876;2023-05-07T10:39:31;10.65;;;6.28;;
56399;SDS011;42298;53.638;9.876;2023-05-07T10:41:56;10.52;;;6.20;;
56399;SDS011;42298;53.638;9.876;2023-05-07T10:44:25;9.82;;;5.80;;
56399;SDS011;42298;53.638;9.876;2023-05-07T10:47:08;8.88;;;5.57;;
56399;SDS011;42298;53.638;9.876;2023-05-07T10:54:39;9.32;;;5.72;;
56399;SDS011;42298;53.638;9.876;2023-05-07T11:00:00;8.93;;;5.50;;
56399;SDS011;42298;53.638;9.876;2023-05-07T11:05:26;10.05;;;5.38;;
56399;SDS011;42298;53.638;9.876;2023-05-07T11:07:54;9.57;;;5.05;;
56399;SDS011;42298;53.638;9.876;2023-05-07T11:10:20;8.85;;;5.38;;
56399;SDS011;42298;53.638;9.876;2023-05-07T11:12:46;9.45;;;5.38;;
56399;SDS011;42298;53.638;9.876;2023-05-07T11:15:13;9.48;;;5.53;;
56399;SDS011;42298;53.638;9.876;2023-05-07T11:20:45;7.65;;;4.75;;
56399;SDS011;42298;53.638;9.876;2023-05-07T11:26:02;8.93;;;4.72;;
56399;SDS011;42298;53.638;9.876;2023-05-07T11:28:29;8.95;;;4.63;;
56399;SDS011;42298;53.638;9.876;2023-05-07T11:30:56;7.18;;;4.65;;
56399;SDS011;42298;53.638;9.876;2023-05-07T11:33:22;8.80;;;5.22;;
56399;SDS011;42298;53.638;9.876;2023-05-07T11:35:47;7.53;;;4.78;;
56399;SDS011;42298;53.638;9.876;2023-05-07T11:38:13;9.15;;;4.30;;
56399;SDS011;42298;53.638;9.876;2023-05-07T11:40:57;7.28;;;4.28;;
56399;SDS011;42298;53.638;9.876;2023-05-07T11:43:25;7.72;;;4.20;;
56399;SDS011;42298;53.638;9.876;2023-05-07T11:45:51;5.78;;;3.97;;
56399;SDS011;42298;53.638;9.876;2023-05-07T11:48:17;7.30;;;4.32;;
56399;SDS011;42298;53.638;9.876;2023-05-07T11:50:51;8.18;;;4.60;;
56399;SDS011;42298;53.638;9.876;2023-05-07T11:53:26;6.55;;;4.10;;
56399;SDS011;42298;53.638;9.876;2023-05-07T11:55:53;6.80;;;4.40;;
56399;SDS011;42298;53.638;9.876;2023-05-07T11:58:21;5.97;;;3.80;;
56399;SDS011;42298;53.638;9.876;2023-05-07T12:00:48;7.20;;;5.28;;
56399;SDS011;42298;53.638;9.876;2023-05-07T12:03:14;7.90;;;4.25;;
56399;SDS011;42298;53.638;9.876;2023-05-07T12:05:40;7.20;;;3.90;;
56399;SDS011;42298;53.638;9.876;2023-05-07T12:08:07;8.35;;;4.45;;
56399;SDS011;42298;53.638;9.876;2023-05-07T12:10:32;7.40;;;4.57;;
56399;SDS011;42298;53.638;9.876;2023-05-07T12:12:58;6.30;;;4.22;;
56399;SDS011;42298;53.638;9.876;2023-05-07T12:15:23;8.25;;;4.22;;
56399;SDS011;42298;53.638;9.876;2023-05-07T12:17:48;7.15;;;4.28;;
56399;SDS011;42298;53.638;9.876;2023-05-07T12:20:15;5.65;;;3.60;;
56399;SDS011;42298;53.638;9.876;2023-05-07T12:22:43;7.28;;;3.80;;
56399;SDS011;42298;53.638;9.876;2023-05-07T12:25:08;6.90;;;4.10;;
56399;SDS011;42298;53.638;9.876;2023-05-07T12:27:36;7.43;;;3.95;;
56399;SDS011;42298;53.638;9.876;2023-05-07T12:30:04;6.95;;;3.78;;
56399;SDS011;42298;53.638;9.876;2023-05-07T12:32:31;7.20;;;4.50;;
56399;SDS011;42298;53.638;9.876;2023-05-07T12:35:01;6.75;;;3.92;;
56399;SDS011;42298;53.638;9.876;2023-05-07T12:37:26;8.13;;;4.13;;
56399;SDS011;42298;53.638;9.876;2023-05-07T12:40:05;7.75;;;3.90;;
56399;SDS011;42298;53.638;9.876;2023-05-07T12:42:39;6.13;;;3.78;;
56399;SDS011;42298;53.638;9.876;2023-05-07T12:45:11;7.97;;;3.88;;
56399;SDS011;42298;53.638;9.876;2023-05-07T12:47:37;7.47;;;4.35;;
56399;SDS011;42298;53.638;9.876;2023-05-07T12:50:05;7.13;;;3.95;;
56399;SDS011;42298;53.638;9.876;2023-05-07T12:52:31;6.07;;;3.63;;
56399;SDS011;42298;53.638;9.876;2023-05-07T12:54:56;6.78;;;3.83;;
56399;SDS011;42298;53.638;9.876;2023-05-07T12:57:30;5.18;;;3.30;;
56399;SDS011;42298;53.638;9.876;2023-05-07T13:00:02;5.40;;;3.75;;
56399;SDS011;42298;53.638;9.876;2023-05-07T13:02:33;6.13;;;3.42;;
56399;SDS011;42298;53.638;9.876;2023-05-07T13:05:02;5.35;;;3.55;;
56399;SDS011;42298;53.638;9.876;2023-05-07T13:07:27;5.85;;;3.40;;
56399;SDS011;42298;53.638;9.876;2023-05-07T13:09:53;5.95;;;3.83;;
56399;SDS011;42298;53.638;9.876;2023-05-07T13:12:18;6.60;;;3.35;;
56399;SDS011;42298;53.638;9.876;2023-05-07T13:14:43;6.60;;;3.50;;
56399;SDS011;42298;53.638;9.876;2023-05-07T13:17:08;5.57;;;3.22;;
56399;SDS011;42298;53.638;9.876;2023-05-07T13:19:34;8.10;;;3.60;;
56399;SDS011;42298;53.638;9.876;2023-05-07T13:21:59;9.32;;;3.30;;
56399;SDS011;42298;53.638;9.876;2023-05-07T13:24:24;4.55;;;3.10;;
56399;SDS011;42298;53.638;9.876;2023-05-07T13:26:50;6.22;;;3.70;;
56399;SDS011;42298;53.638;9.876;2023-05-07T13:29:15;4.20;;;2.90;;
56399;SDS011;42298;53.638;9.876;2023-05-07T13:31:41;5.85;;;3.30;;
56399;SDS011;42298;53.638;9.876;2023-05-07T13:34:09;5.50;;;3.10;;
56399;SDS011;42298;53.638;9.876;2023-05-07T13:36:35;4.20;;;3.08;;
56399;SDS011;42298;53.638;9.876;2023-05-07T13:39:02;5.55;;;2.90;;
56399;SDS011;42298;53.638;9.876;2023-05-07T13:41:28;4.65;;;2.80;;
56399;SDS011;42298;53.638;9.876;2023-05-07T13:43:53;5.40;;;3.13;;
56399;SDS011;42298;53.638;9.876;2023-05-07T13:46:19;4.53;;;2.83;;
56399;SDS011;42298;53.638;9.876;2023-05-07T13:48:44;5.57;;;2.90;;
56399;SDS011;42298;53.638;9.876;2023-05-07T13:51:09;6.65;;;3.20;;
56399;SDS011;42298;53.638;9.876;2023-05-07T13:53:35;5.18;;;3.00;;
56399;SDS011;42298;53.638;9.876;2023-05-07T13:56:01;4.70;;;2.78;;
56399;SDS011;42298;53.638;9.876;2023-05-07T13:58:26;3.63;;;2.67;;
56399;SDS011;42298;53.638;9.876;2023-05-07T14:00:55;3.83;;;2.78;;
56399;SDS011;42298;53.638;9.876;2023-05-07T14:03:20;5.95;;;2.65;;
56399;SDS011;42298;53.638;9.876;2023-05-07T14:05:46;4.30;;;2.80;;
56399;SDS011;42298;53.638;9.876;2023-05-07T14:08:11;4.53;;;2.60;;
56399;SDS011;42298;53.638;9.876;2023-05-07T14:10:38;4.78;;;2.92;;
56399;SDS011;42298;53.638;9.876;2023-05-07T14:13:04;5.82;;;2.88;;
56399;SDS011;42298;53.638;9.876;2023-05-07T14:15:29;5.40;;;2.50;;
56399;SDS011;42298;53.638;9.876;2023-05-07T14:17:55;4.80;;;2.80;;
56399;SDS011;42298;53.638;9.876;2023-05-07T14:20:20;4.22;;;2.70;;
56399;SDS011;42298;53.638;9.876;2023-05-07T14:22:46;5.40;;;3.10;;
56399;SDS011;42298;53.638;9.876;2023-05-07T14:25:11;4.38;;;2.65;;
56399;SDS011;42298;53.638;9.876;2023-05-07T14:27:36;4.72;;;2.63;;
56399;SDS011;42298;53.638;9.876;2023-05-07T14:30:02;4.78;;;2.65;;
56399;SDS011;42298;53.638;9.876;2023-05-07T14:32:28;4.53;;;2.30;;
56399;SDS011;42298;53.638;9.876;2023-05-07T14:34:54;5.13;;;2.50;;
56399;SDS011;42298;53.638;9.876;2023-05-07T14:37:19;4.28;;;2.45;;
56399;SDS011;42298;53.638;9.876;2023-05-07T14:39:46;5.32;;;2.90;;
56399;SDS011;42298;53.638;9.876;2023-05-07T14:42:11;4.35;;;2.60;;
56399;SDS011;42298;53.638;9.876;2023-05-07T14:44:37;5.20;;;2.65;;
56399;SDS011;42298;53.638;9.876;2023-05-07T14:47:07;3.35;;;2.50;;
56399;SDS011;42298;53.638;9.876;2023-05-07T14:49:33;6.60;;;3.00;;
56399;SDS011;42298;53.638;9.876;2023-05-07T14:51:59;4.03;;;2.45;;
56399;SDS011;42298;53.638;9.876;2023-05-07T14:54:25;4.70;;;2.70;;